sensor_id;sensor_type;location;lat;lon;timestamp;pressure;altitude;pressure_sealevel;temperature;humidity
31162;BME280;17796;49.296;-117.656;2022-11-04T00:11:31;96600;;;1.78704;56.2753
31162;BME280;17796;49.296;-117.656;2022-11-04T00:26:35;96500;;;1.4266;56.63419
31162;BME280;17796;49.296;-117.656;2022-11-04T00:41:38;96500;;;1.72448;56.68081
31162;BME280;17796;49.296;-117.656;2022-11-04T00:56:42;96500;;;1.20748;58.43674
31162;BME280;17796;49.296;-117.656;2022-11-04T01:11:46;96500;;;2.26498;56.71634
31162;BME280;17796;49.296;-117.656;2022-11-04T01:26:51;96500;;;1.75465;60.59191
31162;BME280;17796;49.296;-117.656;2022-11-04T01:41:54;96500;;;1.4971;62.33444
31162;BME280;17796;49.296;-117.656;2022-11-04T01:56:58;96500;;;1.41295;62.15337
31162;BME280;17796;49.296;-117.656;2022-11-04T02:12:05;96500;;;2.11128;60.42377
31162;BME280;17796;49.296;-117.656;2022-11-04T02:27:15;96500;;;1.51552;63.11187
31162;BME280;17796;49.296;-117.656;2022-11-04T02:42:29;96500;;;1.7737;61.67854
31162;BME280;17796;49.296;-117.656;2022-11-04T02:57:39;96500;;;2.8274;57.54919
31162;BME280;17796;49.296;-117.656;2022-11-04T03:12:47;96400;;;1.79054;61.27174
31162;BME280;17796;49.296;-117.656;2022-11-04T03:27:59;96400;;;2.03125;59.48176
31162;BME280;17796;49.296;-117.656;2022-11-04T03:43:08;96400;;;1.26972;61.01132
31162;BME280;17796;49.296;-117.656;2022-11-04T03:58:16;96400;;;2.22465;58.76317
31162;BME280;17796;49.296;-117.656;2022-11-04T04:13:32;96400;;;1.64414;60.21671
31162;BME280;17796;49.296;-117.656;2022-11-04T04:28:43;96300;;;0.98042;61.71019
31162;BME280;17796;49.296;-117.656;2022-11-04T04:43:48;96300;;;0.92707;61.60264
31162;BME280;17796;49.296;-117.656;2022-11-04T04:58:52;96300;;;1.40882;59.78548
31162;BME280;17796;49.296;-117.656;2022-11-04T05:13:56;96300;;;1.60635;58.53925
31162;BME280;17796;49.296;-117.656;2022-11-04T05:29:01;96300;;;1.12364;61.6634
31162;BME280;17796;49.296;-117.656;2022-11-04T05:44:05;96300;;;0.58029;64.81195
31162;BME280;17796;49.296;-117.656;2022-11-04T05:59:12;96200;;;0.86038;65.22009
31162;BME280;17796;49.296;-117.656;2022-11-04T06:14:16;96200;;;0.64507;66.0018
31162;BME280;17796;49.296;-117.656;2022-11-04T06:29:20;96200;;;0.54313;68.91809
31162;BME280;17796;49.296;-117.656;2022-11-04T06:44:24;96200;;;1.28338;66.51206
31162;BME280;17796;49.296;-117.656;2022-11-04T06:59:27;96200;;;1.02044;68.28948
31162;BME280;17796;49.296;-117.656;2022-11-04T07:14:31;96200;;;0.95406;70.09531
31162;BME280;17796;49.296;-117.656;2022-11-04T07:29:34;96100;;;2.01601;66.0061
31162;BME280;17796;49.296;-117.656;2022-11-04T07:44:38;96100;;;2.16146;64.39069
31162;BME280;17796;49.296;-117.656;2022-11-04T07:59:42;96100;;;1.93344;66.35836
31162;BME280;17796;49.296;-117.656;2022-11-04T08:14:46;96100;;;1.32784;69.5201
31162;BME280;17796;49.296;-117.656;2022-11-04T08:29:50;96100;;;1.64445;68.74708
31162;BME280;17796;49.296;-117.656;2022-11-04T08:44:53;96100;;;1.84675;68.10198
31162;BME280;17796;49.296;-117.656;2022-11-04T08:59:57;96000;;;1.8315;67.98539
31162;BME280;17796;49.296;-117.656;2022-11-04T09:15:01;96000;;;2.43425;65.13011
31162;BME280;17796;49.296;-117.656;2022-11-04T09:30:05;96000;;;2.6159;65.09773
31162;BME280;17796;49.296;-117.656;2022-11-04T09:45:10;96000;;;2.25705;66.82641
31162;BME280;17796;49.296;-117.656;2022-11-04T10:00:17;96000;;;2.31516;66.1418
31162;BME280;17796;49.296;-117.656;2022-11-04T10:15:32;96000;;;2.30405;66.68642
31162;BME280;17796;49.296;-117.656;2022-11-04T10:30:45;95900;;;2.31389;66.86887
31162;BME280;17796;49.296;-117.656;2022-11-04T10:45:55;95900;;;2.17511;66.73818
31162;BME280;17796;49.296;-117.656;2022-11-04T11:01:21;95900;;;1.45836;70.53498
31162;BME280;17796;49.296;-117.656;2022-11-04T11:16:28;95900;;;2.55397;66.08614
31162;BME280;17796;49.296;-117.656;2022-11-04T11:31:34;95900;;;1.53489;68.54669
31162;BME280;17796;49.296;-117.656;2022-11-04T11:46:40;95900;;;2.09286;66.76558
31162;BME280;17796;49.296;-117.656;2022-11-04T12:01:52;95900;;;2.01474;66.8703
31162;BME280;17796;49.296;-117.656;2022-11-04T12:17:06;95800;;;1.90168;67.99591
31162;BME280;17796;49.296;-117.656;2022-11-04T12:32:21;95800;;;1.60412;69.00241
31162;BME280;17796;49.296;-117.656;2022-11-04T12:47:33;95800;;;1.65335;68.39043
31162;BME280;17796;49.296;-117.656;2022-11-04T13:02:41;95800;;;1.94805;66.88222
31162;BME280;17796;49.296;-117.656;2022-11-04T13:17:51;95800;;;1.70511;69.19129
31162;BME280;17796;49.296;-117.656;2022-11-04T13:33:01;95800;;;1.81562;67.62123
31162;BME280;17796;49.296;-117.656;2022-11-04T13:48:14;95700;;;1.75846;67.69968
31162;BME280;17796;49.296;-117.656;2022-11-04T14:03:38;95700;;;1.5422;68.5802
31162;BME280;17796;49.296;-117.656;2022-11-04T14:34:56;95700;;;1.19923;70.16358
31162;BME280;17796;49.296;-117.656;2022-11-04T14:50:03;95700;;;1.72893;68.19798
31162;BME280;17796;49.296;-117.656;2022-11-04T15:05:20;95700;;;1.02488;71.9601
31162;BME280;17796;49.296;-117.656;2022-11-04T15:20:27;95600;;;1.1011;71.34104
31162;BME280;17796;49.296;-117.656;2022-11-04T15:35:32;95700;;;0.94358;71.99187
31162;BME280;17796;49.296;-117.656;2022-11-04T15:50:36;95600;;;1.32085;70.78777
31162;BME280;17796;49.296;-117.656;2022-11-04T16:05:40;95600;;;1.25512;70.86493
31162;BME280;17796;49.296;-117.656;2022-11-04T16:20:44;95600;;;1.48249;69.8119
31162;BME280;17796;49.296;-117.656;2022-11-04T16:35:49;95600;;;1.54188;68.70657
31162;BME280;17796;49.296;-117.656;2022-11-04T16:50:52;95600;;;1.28084;69.62636
31162;BME280;17796;49.296;-117.656;2022-11-04T17:05:56;95600;;;1.24813;69.66231
31162;BME280;17796;49.296;-117.656;2022-11-04T17:21:01;95600;;;1.51647;68.43544
31162;BME280;17796;49.296;-117.656;2022-11-04T17:36:08;95500;;;1.46439;68.84922
31162;BME280;17796;49.296;-117.656;2022-11-04T17:51:17;95500;;;1.3542;68.53897
31162;BME280;17796;49.296;-117.656;2022-11-04T18:06:21;95500;;;1.64191;68.24118
31162;BME280;17796;49.296;-117.656;2022-11-04T18:21:26;95500;;;1.26115;70.2452
31162;BME280;17796;49.296;-117.656;2022-11-04T18:36:31;95400;;;1.22431;70.8241
31162;BME280;17796;49.296;-117.656;2022-11-04T18:51:35;95400;;;0.9439;72.85248
31162;BME280;17796;49.296;-117.656;2022-11-04T19:06:40;95400;;;0.84863;73.07467
31162;BME280;17796;49.296;-117.656;2022-11-04T19:21:45;95400;;;0.98646;72.70735
31162;BME280;17796;49.296;-117.656;2022-11-04T19:36:48;95300;;;1.14048;72.51244
31162;BME280;17796;49.296;-117.656;2022-11-04T19:51:53;95300;;;1.89629;69.09554
31162;BME280;17796;49.296;-117.656;2022-11-04T20:06:56;95300;;;1.38087;70.42464
31162;BME280;17796;49.296;-117.656;2022-11-04T20:22:00;95300;;;1.67716;69.47499
31162;BME280;17796;49.296;-117.656;2022-11-04T20:37:04;95200;;;1.8115;69.71047
31162;BME280;17796;49.296;-117.656;2022-11-04T20:52:08;95200;;;1.67177;70.28784
31162;BME280;17796;49.296;-117.656;2022-11-04T21:07:13;95200;;;1.56919;70.36233
31162;BME280;17796;49.296;-117.656;2022-11-04T21:22:17;95100;;;1.17096;71.51668
31162;BME280;17796;49.296;-117.656;2022-11-04T21:37:21;95100;;;0.67207;72.64356
31162;BME280;17796;49.296;-117.656;2022-11-04T21:52:25;95100;;;1.61079;69.84913
31162;BME280;17796;49.296;-117.656;2022-11-04T22:07:30;95100;;;1.09887;71.61481
31162;BME280;17796;49.296;-117.656;2022-11-04T22:22:33;95100;;;-0.35906;77.7067
31162;BME280;17796;49.296;-117.656;2022-11-04T22:37:37;95000;;;0.30591;75.11877
31162;BME280;17796;49.296;-117.656;2022-11-04T22:52:41;95000;;;0.72097;72.52162
31162;BME280;17796;49.296;-117.656;2022-11-04T23:07:44;95000;;;0.59458;72.97665
31162;BME280;17796;49.296;-117.656;2022-11-04T23:22:48;95000;;;1.05314;70.85453
31162;BME280;17796;49.296;-117.656;2022-11-04T23:37:55;94900;;;0.92644;70.35097
31162;BME280;17796;49.296;-117.656;2022-11-04T23:52:59;94900;;;0.4828;72.57855
